createdAt,value
2018-03-15T00:01:26.053Z,7.20
2018-03-15T00:06:28.621Z,7.10
2018-03-15T00:11:31.551Z,7.10
2018-03-15T00:16:34.129Z,7.10
2018-03-15T00:21:37.794Z,6.80
2018-03-15T00:26:40.982Z,6.80
2018-03-15T00:31:44.900Z,6.60
2018-03-15T00:36:48.789Z,6.60
2018-03-15T00:41:51.374Z,6.60
2018-03-15T00:46:54.588Z,6.50
2018-03-15T00:51:57.168Z,6.30
2018-03-15T00:56:59.752Z,6.10
2018-03-15T01:02:02.973Z,6.10
2018-03-15T01:07:05.570Z,6.00
2018-03-15T01:12:08.789Z,6.00
2018-03-15T01:17:11.361Z,6.10
2018-03-15T01:22:14.724Z,6.00
2018-03-15T01:27:17.297Z,6.00
2018-03-15T01:32:19.888Z,6.00
2018-03-15T01:37:25.114Z,5.90
2018-03-15T01:42:27.681Z,5.80
2018-03-15T01:47:30.261Z,5.80
2018-03-15T01:52:47.680Z,5.90
2018-03-15T01:57:51.022Z,6.00
2018-03-15T02:03:00.348Z,6.00
2018-03-15T02:08:04.176Z,6.00
2018-03-15T02:13:11.201Z,5.90
2018-03-15T02:18:14.209Z,5.90
2018-03-15T02:23:16.793Z,5.70
2018-03-15T02:28:19.368Z,5.50
2018-03-15T02:33:21.951Z,5.40
2018-03-15T02:38:25.216Z,5.40
2018-03-15T02:43:27.808Z,5.40
2018-03-15T02:48:33.026Z,5.30
2018-03-15T02:53:36.085Z,5.20
2018-03-15T02:58:41.263Z,5.20
2018-03-15T03:03:43.861Z,5.30
2018-03-15T03:08:48.953Z,5.20
2018-03-15T03:13:52.147Z,5.20
2018-03-15T03:18:54.889Z,5.00
2018-03-15T03:23:57.938Z,4.90
2018-03-15T03:29:00.852Z,4.80
2018-03-15T03:34:04.083Z,4.70
2018-03-15T03:39:09.349Z,4.60
2018-03-15T03:44:11.933Z,4.60
2018-03-15T03:49:14.518Z,4.60
2018-03-15T03:54:17.100Z,4.70
2018-03-15T03:59:19.805Z,4.60
2018-03-15T04:04:22.412Z,4.50
2018-03-15T04:14:36.265Z,4.50
2018-03-15T04:19:40.342Z,4.20
2018-03-15T04:24:42.928Z,4.20
2018-03-15T04:29:46.189Z,4.30
2018-03-15T04:34:48.768Z,4.40
2018-03-15T04:39:51.353Z,4.40
2018-03-15T04:44:54.504Z,4.50
2018-03-15T04:49:57.365Z,4.50
2018-03-15T04:55:00.597Z,4.50
2018-03-15T05:00:03.909Z,4.50
2018-03-15T05:05:06.496Z,4.60
2018-03-15T05:10:09.843Z,4.70
2018-03-15T05:15:12.429Z,4.50
2018-03-15T05:20:15.571Z,4.40
2018-03-15T05:25:19.484Z,4.70
2018-03-15T05:30:22.069Z,4.60
2018-03-15T05:35:27.302Z,4.70
2018-03-15T05:40:30.664Z,4.40
2018-03-15T05:45:33.865Z,4.00
2018-03-15T05:50:36.441Z,4.10
2018-03-15T05:55:39.017Z,3.80
2018-03-15T06:00:44.865Z,3.70
2018-03-15T06:05:51.008Z,4.10
2018-03-15T06:10:53.730Z,4.10
2018-03-15T06:15:57.738Z,4.50
2018-03-15T06:21:00.749Z,4.50
2018-03-15T06:26:04.670Z,4.70
2018-03-15T06:31:09.872Z,4.80
2018-03-15T06:36:13.241Z,4.90
2018-03-15T06:41:15.887Z,4.90
2018-03-15T06:46:19.230Z,4.70
2018-03-15T06:51:23.217Z,4.70
2018-03-15T06:56:25.794Z,4.80
2018-03-15T07:01:29.455Z,4.90
2018-03-15T07:06:33.980Z,4.90
2018-03-15T07:11:36.558Z,4.90
2018-03-15T07:16:39.139Z,5.20
2018-03-15T07:21:41.794Z,5.40
2018-03-15T07:26:45.215Z,5.80
2018-03-15T07:31:48.571Z,6.00
2018-03-15T07:36:51.802Z,6.00
2018-03-15T07:41:54.410Z,6.10
2018-03-15T07:46:56.993Z,5.90
2018-03-15T07:51:59.846Z,5.60
2018-03-15T07:57:02.453Z,5.40
2018-03-15T08:02:05.080Z,5.80
2018-03-15T08:07:07.897Z,5.20
2018-03-15T08:12:10.492Z,4.80
2018-03-15T08:17:13.081Z,5.40
2018-03-15T08:22:16.105Z,5.30
2018-03-15T08:27:19.297Z,5.60
2018-03-15T08:32:21.868Z,5.60
2018-03-15T08:37:24.593Z,5.80
2018-03-15T08:42:27.892Z,6.40
2018-03-15T08:47:30.525Z,7.00
2018-03-15T08:52:33.142Z,7.10
2018-03-15T08:57:36.228Z,7.00
2018-03-15T09:02:38.825Z,6.90
2018-03-15T09:07:41.398Z,6.60
2018-03-15T09:12:44.003Z,6.30
2018-03-15T09:17:46.593Z,6.50
2018-03-15T09:22:50.131Z,6.50
2018-03-15T09:27:52.981Z,6.20
2018-03-15T09:32:56.193Z,6.30
2018-03-15T09:38:00.243Z,7.40
2018-03-15T09:43:02.846Z,7.40
2018-03-15T09:48:05.454Z,7.80
2018-03-15T09:53:08.663Z,8.60
2018-03-15T09:58:11.894Z,10.40
2018-03-15T10:03:17.650Z,11.20
2018-03-15T10:08:27.667Z,12.40
2018-03-15T10:13:30.748Z,12.10
2018-03-15T10:18:33.681Z,11.90
2018-03-15T10:23:36.773Z,11.90
2018-03-15T10:28:39.877Z,11.60
2018-03-15T10:33:42.719Z,11.70
2018-03-15T10:38:46.572Z,12.10
2018-03-15T10:43:49.941Z,12.30
2018-03-15T10:48:52.568Z,12.30
2018-03-15T10:53:56.617Z,12.70
2018-03-15T10:59:00.393Z,12.70
2018-03-15T11:04:08.812Z,12.20
2018-03-15T11:09:14.637Z,11.20
2018-03-15T11:14:21.593Z,10.50
2018-03-15T11:19:24.657Z,10.50
2018-03-15T11:24:28.306Z,10.00
2018-03-15T11:29:30.943Z,10.00
2018-03-15T11:34:33.817Z,9.90
2018-03-15T11:39:37.072Z,9.90
2018-03-15T11:44:41.047Z,9.90
2018-03-15T11:49:46.493Z,9.90
2018-03-15T11:54:49.861Z,9.80
2018-03-15T11:59:52.504Z,9.80
2018-03-15T12:04:55.868Z,10.40
2018-03-15T12:09:58.485Z,10.40
2018-03-15T12:15:01.141Z,10.70
2018-03-15T12:20:03.762Z,10.80
2018-03-15T12:25:13.917Z,11.00
2018-03-15T12:30:17.926Z,10.90
2018-03-15T12:35:21.161Z,10.90
2018-03-15T12:40:25.141Z,10.70
2018-03-15T12:45:30.855Z,10.60
2018-03-15T12:50:34.830Z,11.10
2018-03-15T12:55:37.425Z,11.10
2018-03-15T13:00:40.814Z,11.10
2018-03-15T13:05:44.157Z,11.10
2018-03-15T13:10:46.755Z,11.10
2018-03-15T13:15:50.189Z,11.20
2018-03-15T13:20:52.840Z,11.50
2018-03-15T13:25:55.998Z,11.40
2018-03-15T13:30:59.177Z,11.20
2018-03-15T13:36:02.054Z,11.20
2018-03-15T13:41:05.453Z,11.40
2018-03-15T13:46:08.871Z,11.40
2018-03-15T13:51:11.946Z,11.30
2018-03-15T13:56:14.561Z,11.30
2018-03-15T14:01:17.412Z,11.70
2018-03-15T14:06:20.776Z,12.50
2018-03-15T14:11:23.856Z,12.40
2018-03-15T14:16:27.064Z,12.60
2018-03-15T14:21:29.645Z,13.00
2018-03-15T14:26:33.702Z,13.50
2018-03-15T14:31:37.955Z,13.50
2018-03-15T14:36:40.528Z,14.40
2018-03-15T14:41:44.274Z,15.20
2018-03-15T14:46:46.866Z,16.60
2018-03-15T14:51:50.036Z,17.10
2018-03-15T14:56:53.477Z,17.30
2018-03-15T15:01:58.581Z,17.10
2018-03-15T15:07:01.199Z,17.40
2018-03-15T15:12:06.446Z,17.90
2018-03-15T15:17:09.027Z,17.80
2018-03-15T15:22:14.236Z,17.50
2018-03-15T15:27:17.729Z,15.20
2018-03-15T15:32:20.306Z,15.20
2018-03-15T15:37:23.463Z,14.70
2018-03-15T15:42:26.832Z,14.30
2018-03-15T15:47:29.586Z,14.30
2018-03-15T15:52:34.649Z,14.30
2018-03-15T15:57:39.138Z,14.20
2018-03-15T16:02:41.781Z,14.20
2018-03-15T16:07:45.136Z,13.40
2018-03-15T16:12:47.937Z,13.40
2018-03-15T16:17:50.727Z,12.40
2018-03-15T16:22:53.539Z,12.50
2018-03-15T16:27:56.350Z,12.50
2018-03-15T16:32:59.638Z,12.60
2018-03-15T16:38:02.443Z,12.70
2018-03-15T16:43:05.261Z,12.60
2018-03-15T16:48:07.971Z,12.20
2018-03-15T16:53:10.851Z,11.80
2018-03-15T16:58:16.541Z,11.70
2018-03-15T17:03:20.146Z,11.80
2018-03-15T17:08:23.136Z,11.80
2018-03-15T17:13:26.805Z,11.90
2018-03-15T17:18:29.603Z,11.90
2018-03-15T17:23:32.375Z,11.60
2018-03-15T17:28:36.215Z,11.40
2018-03-15T17:33:39.014Z,11.40
2018-03-15T17:38:41.696Z,11.40
2018-03-15T17:43:46.124Z,11.10
2018-03-15T17:48:48.858Z,11.10
2018-03-15T17:53:51.529Z,11.00
2018-03-15T17:58:54.460Z,10.90
2018-03-15T18:03:57.262Z,11.00
2018-03-15T18:08:59.963Z,11.10
2018-03-15T18:14:03.405Z,11.20
2018-03-15T18:19:06.313Z,11.20
2018-03-15T18:24:09.002Z,11.00
2018-03-15T18:29:11.674Z,11.00
2018-03-15T18:34:15.238Z,11.10
2018-03-15T18:39:18.133Z,11.10
2018-03-15T18:44:20.844Z,11.10
2018-03-15T18:49:23.550Z,11.00
2018-03-15T18:54:26.332Z,10.90
2018-03-15T18:59:29.153Z,10.90
2018-03-15T19:04:31.854Z,10.70
2018-03-15T19:09:34.525Z,10.40
2018-03-15T19:14:37.209Z,10.20
2018-03-15T19:19:40.748Z,10.40
2018-03-15T19:24:43.473Z,10.40
2018-03-15T19:29:46.249Z,10.40
2018-03-15T19:34:48.936Z,10.20
2018-03-15T19:39:52.563Z,9.90
2018-03-15T19:44:56.039Z,9.80
2018-03-15T19:49:58.785Z,9.80
2018-03-15T19:55:01.521Z,9.80
2018-03-15T20:00:04.303Z,9.60
2018-03-15T20:05:07.093Z,9.40
2018-03-15T20:10:09.803Z,9.50
2018-03-15T20:15:12.491Z,9.50
2018-03-15T20:20:15.215Z,9.50
2018-03-15T20:25:18.004Z,9.40
2018-03-15T20:30:20.724Z,9.30
2018-03-15T20:35:23.423Z,9.10
2018-03-15T20:40:31.767Z,9.10
2018-03-15T20:45:40.296Z,9.10
2018-03-15T20:50:43.078Z,9.00
2018-03-15T20:55:45.794Z,9.10
2018-03-15T21:00:48.577Z,9.20
2018-03-15T21:05:52.100Z,9.30
2018-03-15T21:10:54.787Z,9.30
2018-03-15T21:15:58.328Z,8.90
2018-03-15T21:21:01.231Z,8.90
2018-03-15T21:26:03.929Z,9.10
2018-03-15T21:31:06.630Z,9.10
2018-03-15T21:36:09.333Z,9.10
2018-03-15T21:41:12.133Z,9.00
2018-03-15T21:46:14.948Z,8.90
2018-03-15T21:51:17.742Z,8.90
2018-03-15T21:56:20.475Z,8.90
2018-03-15T22:01:23.180Z,9.20
2018-03-15T22:06:26.244Z,9.10
2018-03-15T22:11:30.076Z,9.30
2018-03-15T22:16:34.366Z,9.20
2018-03-15T22:21:36.975Z,9.20
2018-03-15T22:26:40.027Z,9.20
2018-03-15T22:31:42.646Z,9.60
2018-03-15T22:36:45.302Z,10.00
2018-03-15T22:41:49.147Z,10.00
2018-03-15T22:46:52.830Z,9.80
2018-03-15T22:51:55.703Z,9.80
2018-03-15T22:57:05.066Z,9.90
2018-03-15T23:02:08.191Z,10.00
2018-03-15T23:07:10.811Z,10.10
2018-03-15T23:12:15.173Z,10.10
2018-03-15T23:17:18.582Z,10.00
2018-03-15T23:22:23.327Z,10.00
2018-03-15T23:27:27.791Z,10.00
2018-03-15T23:32:30.438Z,10.10
2018-03-15T23:37:33.064Z,10.00
2018-03-15T23:42:35.707Z,10.10
2018-03-15T23:47:39.268Z,10.10
2018-03-15T23:52:42.176Z,9.90
2018-03-15T23:57:44.807Z,9.80
